sensor_id;sensor_type;location;lat;lon;timestamp;temperature;humidity
9371;DHT22;4725;48.384;8.984;2023-07-20T00:01:31;19.00;99.40
9371;DHT22;4725;48.384;8.984;2023-07-20T00:03:57;19.00;99.20
9371;DHT22;4725;48.384;8.984;2023-07-20T00:08:53;19.00;99.10
9371;DHT22;4725;48.384;8.984;2023-07-20T00:11:21;19.00;98.00
9371;DHT22;4725;48.384;8.984;2023-07-20T00:13:47;19.10;98.10
9371;DHT22;4725;48.384;8.984;2023-07-20T00:16:14;17.40;97.20
9371;DHT22;4725;48.384;8.984;2023-07-20T00:21:09;19.00;97.80
9371;DHT22;4725;48.384;8.984;2023-07-20T00:23:37;19.00;98.30
9371;DHT22;4725;48.384;8.984;2023-07-20T00:26:04;18.90;98.50
9371;DHT22;4725;48.384;8.984;2023-07-20T00:28:31;18.90;98.20
9371;DHT22;4725;48.384;8.984;2023-07-20T00:30:59;18.80;98.30
9371;DHT22;4725;48.384;8.984;2023-07-20T00:33:26;18.80;98.70
9371;DHT22;4725;48.384;8.984;2023-07-20T00:35:53;18.70;99.40
9371;DHT22;4725;48.384;8.984;2023-07-20T00:38:20;18.60;99.70
9371;DHT22;4725;48.384;8.984;2023-07-20T00:40:48;18.40;99.90
9371;DHT22;4725;48.384;8.984;2023-07-20T00:43:15;18.40;99.90
9371;DHT22;4725;48.384;8.984;2023-07-20T00:45:42;18.40;99.90
9371;DHT22;4725;48.384;8.984;2023-07-20T00:48:09;18.40;99.90
9371;DHT22;4725;48.384;8.984;2023-07-20T00:50:40;18.30;99.60
9371;DHT22;4725;48.384;8.984;2023-07-20T00:53:07;18.40;99.70
9371;DHT22;4725;48.384;8.984;2023-07-20T00:55:34;18.40;99.40
9371;DHT22;4725;48.384;8.984;2023-07-20T00:58:03;18.50;99.30
9371;DHT22;4725;48.384;8.984;2023-07-20T01:00:30;18.60;99.10
9371;DHT22;4725;48.384;8.984;2023-07-20T01:02:57;18.60;99.40
9371;DHT22;4725;48.384;8.984;2023-07-20T01:05:35;18.50;99.70
9371;DHT22;4725;48.384;8.984;2023-07-20T01:08:07;18.50;99.90
9371;DHT22;4725;48.384;8.984;2023-07-20T01:10:40;18.40;99.90
9371;DHT22;4725;48.384;8.984;2023-07-20T01:13:14;18.40;99.90
9371;DHT22;4725;48.384;8.984;2023-07-20T01:15:41;18.20;99.90
9371;DHT22;4725;48.384;8.984;2023-07-20T01:18:08;18.10;99.90
9371;DHT22;4725;48.384;8.984;2023-07-20T01:20:35;18.10;99.90
9371;DHT22;4725;48.384;8.984;2023-07-20T01:23:25;18.10;99.90
9371;DHT22;4725;48.384;8.984;2023-07-20T01:29:26;17.90;99.90
9371;DHT22;4725;48.384;8.984;2023-07-20T01:32:01;17.90;99.90
9371;DHT22;4725;48.384;8.984;2023-07-20T01:34:29;17.80;99.90
9371;DHT22;4725;48.384;8.984;2023-07-20T01:36:58;17.80;99.90
9371;DHT22;4725;48.384;8.984;2023-07-20T01:39:26;17.60;99.90
9371;DHT22;4725;48.384;8.984;2023-07-20T01:41:55;17.50;99.90
9371;DHT22;4725;48.384;8.984;2023-07-20T01:46:49;17.50;99.90
9371;DHT22;4725;48.384;8.984;2023-07-20T01:49:17;17.50;99.90
9371;DHT22;4725;48.384;8.984;2023-07-20T01:51:44;17.50;99.90
9371;DHT22;4725;48.384;8.984;2023-07-20T01:54:11;17.50;99.90
9371;DHT22;4725;48.384;8.984;2023-07-20T01:56:38;17.50;99.90
9371;DHT22;4725;48.384;8.984;2023-07-20T01:59:05;17.40;99.90
9371;DHT22;4725;48.384;8.984;2023-07-20T02:01:31;17.40;99.90
9371;DHT22;4725;48.384;8.984;2023-07-20T02:08:55;14.60;99.50
9371;DHT22;4725;48.384;8.984;2023-07-20T02:11:22;17.30;99.90
9371;DHT22;4725;48.384;8.984;2023-07-20T02:21:11;17.10;99.90
9371;DHT22;4725;48.384;8.984;2023-07-20T02:26:06;16.90;99.90
9371;DHT22;4725;48.384;8.984;2023-07-20T02:28:33;16.80;99.90
9371;DHT22;4725;48.384;8.984;2023-07-20T02:31:00;16.70;99.90
9371;DHT22;4725;48.384;8.984;2023-07-20T02:33:27;16.70;99.90
9371;DHT22;4725;48.384;8.984;2023-07-20T02:35:54;16.70;99.90
9371;DHT22;4725;48.384;8.984;2023-07-20T02:38:20;16.90;99.90
9371;DHT22;4725;48.384;8.984;2023-07-20T02:40:49;16.50;99.90
9371;DHT22;4725;48.384;8.984;2023-07-20T02:43:16;16.40;99.90
9371;DHT22;4725;48.384;8.984;2023-07-20T02:45:43;16.50;99.90
9371;DHT22;4725;48.384;8.984;2023-07-20T02:48:10;16.50;99.90
9371;DHT22;4725;48.384;8.984;2023-07-20T02:50:37;16.40;99.90
9371;DHT22;4725;48.384;8.984;2023-07-20T02:53:04;16.40;99.90
9371;DHT22;4725;48.384;8.984;2023-07-20T02:55:30;16.40;99.90
9371;DHT22;4725;48.384;8.984;2023-07-20T02:57:59;16.40;99.90
9371;DHT22;4725;48.384;8.984;2023-07-20T03:00:25;16.20;99.90
9371;DHT22;4725;48.384;8.984;2023-07-20T03:02:53;16.20;99.90
9371;DHT22;4725;48.384;8.984;2023-07-20T03:05:21;16.20;99.90
9371;DHT22;4725;48.384;8.984;2023-07-20T03:07:50;16.20;99.90
9371;DHT22;4725;48.384;8.984;2023-07-20T03:12:44;16.20;99.90
9371;DHT22;4725;48.384;8.984;2023-07-20T03:17:40;16.00;99.90
9371;DHT22;4725;48.384;8.984;2023-07-20T03:20:08;15.60;99.90
9371;DHT22;4725;48.384;8.984;2023-07-20T03:22:36;15.50;99.90
9371;DHT22;4725;48.384;8.984;2023-07-20T03:25:03;15.40;99.90
9371;DHT22;4725;48.384;8.984;2023-07-20T03:27:30;15.30;99.90
9371;DHT22;4725;48.384;8.984;2023-07-20T03:29:57;15.20;99.90
9371;DHT22;4725;48.384;8.984;2023-07-20T03:32:25;15.20;99.90
9371;DHT22;4725;48.384;8.984;2023-07-20T03:34:52;15.00;99.90
9371;DHT22;4725;48.384;8.984;2023-07-20T03:37:19;14.90;99.90
9371;DHT22;4725;48.384;8.984;2023-07-20T03:39:47;14.20;99.90
9371;DHT22;4725;48.384;8.984;2023-07-20T03:42:14;14.20;99.90
9371;DHT22;4725;48.384;8.984;2023-07-20T03:44:41;14.10;99.90
9371;DHT22;4725;48.384;8.984;2023-07-20T03:47:08;14.00;99.90
9371;DHT22;4725;48.384;8.984;2023-07-20T03:49:36;14.00;99.90
9371;DHT22;4725;48.384;8.984;2023-07-20T03:52:03;14.10;99.90
9371;DHT22;4725;48.384;8.984;2023-07-20T03:54:30;14.20;99.90
9371;DHT22;4725;48.384;8.984;2023-07-20T03:56:57;14.20;99.90
9371;DHT22;4725;48.384;8.984;2023-07-20T03:59:26;14.10;99.90
9371;DHT22;4725;48.384;8.984;2023-07-20T04:01:53;14.10;99.90
9371;DHT22;4725;48.384;8.984;2023-07-20T04:04:20;14.20;99.90
9371;DHT22;4725;48.384;8.984;2023-07-20T04:06:48;14.20;99.90
9371;DHT22;4725;48.384;8.984;2023-07-20T04:09:15;14.00;99.90
9371;DHT22;4725;48.384;8.984;2023-07-20T04:11:41;14.00;99.90
9371;DHT22;4725;48.384;8.984;2023-07-20T04:14:08;14.00;99.90
9371;DHT22;4725;48.384;8.984;2023-07-20T04:16:35;14.10;99.90
9371;DHT22;4725;48.384;8.984;2023-07-20T04:19:03;14.00;99.90
9371;DHT22;4725;48.384;8.984;2023-07-20T04:21:30;14.10;99.90
9371;DHT22;4725;48.384;8.984;2023-07-20T04:23:58;14.20;99.90
9371;DHT22;4725;48.384;8.984;2023-07-20T04:26:25;14.10;99.90
9371;DHT22;4725;48.384;8.984;2023-07-20T04:28:51;14.20;99.90
9371;DHT22;4725;48.384;8.984;2023-07-20T04:31:18;14.40;99.90
9371;DHT22;4725;48.384;8.984;2023-07-20T04:33:45;14.30;99.90
9371;DHT22;4725;48.384;8.984;2023-07-20T04:36:12;14.40;99.90
9371;DHT22;4725;48.384;8.984;2023-07-20T04:38:41;14.40;99.90
9371;DHT22;4725;48.384;8.984;2023-07-20T04:41:10;14.60;99.90
9371;DHT22;4725;48.384;8.984;2023-07-20T04:43:41;14.60;99.90
9371;DHT22;4725;48.384;8.984;2023-07-20T04:46:08;14.60;99.90
9371;DHT22;4725;48.384;8.984;2023-07-20T04:51:02;14.80;99.90
9371;DHT22;4725;48.384;8.984;2023-07-20T04:53:30;15.00;99.90
9371;DHT22;4725;48.384;8.984;2023-07-20T04:55:57;15.20;99.90
9371;DHT22;4725;48.384;8.984;2023-07-20T04:58:26;15.40;99.90
9371;DHT22;4725;48.384;8.984;2023-07-20T05:00:53;15.60;99.90
9371;DHT22;4725;48.384;8.984;2023-07-20T05:05:47;15.80;99.90
9371;DHT22;4725;48.384;8.984;2023-07-20T05:08:15;15.90;99.90
9371;DHT22;4725;48.384;8.984;2023-07-20T05:10:42;16.10;99.90
9371;DHT22;4725;48.384;8.984;2023-07-20T05:13:09;16.10;99.90
9371;DHT22;4725;48.384;8.984;2023-07-20T05:15:37;16.10;99.90
9371;DHT22;4725;48.384;8.984;2023-07-20T05:18:04;16.30;99.90
9371;DHT22;4725;48.384;8.984;2023-07-20T05:20:31;16.50;99.90
9371;DHT22;4725;48.384;8.984;2023-07-20T05:22:58;16.50;99.90
9371;DHT22;4725;48.384;8.984;2023-07-20T05:25:26;16.40;99.90
9371;DHT22;4725;48.384;8.984;2023-07-20T05:27:53;16.60;99.90
9371;DHT22;4725;48.384;8.984;2023-07-20T05:30:21;16.80;99.90
9371;DHT22;4725;48.384;8.984;2023-07-20T05:32:49;16.80;99.90
9371;DHT22;4725;48.384;8.984;2023-07-20T05:35:17;16.80;99.90
9371;DHT22;4725;48.384;8.984;2023-07-20T05:37:44;16.80;99.90
9371;DHT22;4725;48.384;8.984;2023-07-20T05:40:12;16.80;99.90
9371;DHT22;4725;48.384;8.984;2023-07-20T05:42:40;16.80;99.90
9371;DHT22;4725;48.384;8.984;2023-07-20T05:45:07;16.70;99.90
9371;DHT22;4725;48.384;8.984;2023-07-20T05:47:34;16.90;99.90
9371;DHT22;4725;48.384;8.984;2023-07-20T05:50:02;17.10;99.90
9371;DHT22;4725;48.384;8.984;2023-07-20T05:52:30;17.20;99.90
9371;DHT22;4725;48.384;8.984;2023-07-20T05:54:57;17.10;99.90
9371;DHT22;4725;48.384;8.984;2023-07-20T05:57:24;17.00;99.90
9371;DHT22;4725;48.384;8.984;2023-07-20T05:59:51;17.10;99.90
9371;DHT22;4725;48.384;8.984;2023-07-20T06:02:18;17.20;99.90
9371;DHT22;4725;48.384;8.984;2023-07-20T06:04:45;17.30;99.90
9371;DHT22;4725;48.384;8.984;2023-07-20T06:07:13;17.40;99.90
9371;DHT22;4725;48.384;8.984;2023-07-20T06:09:40;17.30;99.90
9371;DHT22;4725;48.384;8.984;2023-07-20T06:12:08;17.30;99.90
9371;DHT22;4725;48.384;8.984;2023-07-20T06:14:35;17.40;99.90
9371;DHT22;4725;48.384;8.984;2023-07-20T06:19:29;17.40;99.90
9371;DHT22;4725;48.384;8.984;2023-07-20T06:21:56;17.40;99.90
9371;DHT22;4725;48.384;8.984;2023-07-20T06:24:24;17.30;99.90
9371;DHT22;4725;48.384;8.984;2023-07-20T06:26:51;17.40;99.90
9371;DHT22;4725;48.384;8.984;2023-07-20T06:29:18;17.70;99.90
9371;DHT22;4725;48.384;8.984;2023-07-20T06:31:45;17.70;99.90
9371;DHT22;4725;48.384;8.984;2023-07-20T06:34:12;18.00;99.90
9371;DHT22;4725;48.384;8.984;2023-07-20T06:36:38;17.80;99.90
9371;DHT22;4725;48.384;8.984;2023-07-20T06:39:06;17.70;99.90
9371;DHT22;4725;48.384;8.984;2023-07-20T06:41:34;18.00;99.90
9371;DHT22;4725;48.384;8.984;2023-07-20T06:44:01;18.00;99.90
9371;DHT22;4725;48.384;8.984;2023-07-20T06:48:56;18.20;99.90
9371;DHT22;4725;48.384;8.984;2023-07-20T06:51:23;18.20;99.90
9371;DHT22;4725;48.384;8.984;2023-07-20T06:56:17;18.60;99.90
9371;DHT22;4725;48.384;8.984;2023-07-20T06:58:45;18.90;99.90
9371;DHT22;4725;48.384;8.984;2023-07-20T07:01:12;18.90;99.90
9371;DHT22;4725;48.384;8.984;2023-07-20T07:03:39;18.90;99.90
9371;DHT22;4725;48.384;8.984;2023-07-20T07:06:06;19.20;99.90
9371;DHT22;4725;48.384;8.984;2023-07-20T07:08:32;19.30;99.90
9371;DHT22;4725;48.384;8.984;2023-07-20T07:11:00;19.40;99.90
9371;DHT22;4725;48.384;8.984;2023-07-20T07:13:27;19.40;99.90
9371;DHT22;4725;48.384;8.984;2023-07-20T07:15:55;19.60;99.90
9371;DHT22;4725;48.384;8.984;2023-07-20T07:18:23;19.70;99.90
9371;DHT22;4725;48.384;8.984;2023-07-20T07:20:51;19.70;99.90
9371;DHT22;4725;48.384;8.984;2023-07-20T07:23:18;19.60;99.90
9371;DHT22;4725;48.384;8.984;2023-07-20T07:25:45;19.70;99.90
9371;DHT22;4725;48.384;8.984;2023-07-20T07:28:13;19.90;99.90
9371;DHT22;4725;48.384;8.984;2023-07-20T07:30:40;20.00;99.90
9371;DHT22;4725;48.384;8.984;2023-07-20T07:33:08;20.00;99.90
9371;DHT22;4725;48.384;8.984;2023-07-20T07:35:35;20.00;99.90
9371;DHT22;4725;48.384;8.984;2023-07-20T07:38:02;20.00;99.90
9371;DHT22;4725;48.384;8.984;2023-07-20T07:40:29;20.10;99.90
9371;DHT22;4725;48.384;8.984;2023-07-20T07:42:56;20.10;99.90
9371;DHT22;4725;48.384;8.984;2023-07-20T07:45:22;20.30;99.90
9371;DHT22;4725;48.384;8.984;2023-07-20T07:50:18;21.20;99.90
9371;DHT22;4725;48.384;8.984;2023-07-20T07:52:45;21.20;99.90
9371;DHT22;4725;48.384;8.984;2023-07-20T07:55:12;21.00;99.90
9371;DHT22;4725;48.384;8.984;2023-07-20T07:57:39;21.10;99.90
9371;DHT22;4725;48.384;8.984;2023-07-20T08:00:07;21.20;99.90
9371;DHT22;4725;48.384;8.984;2023-07-20T08:02:37;21.20;99.90
9371;DHT22;4725;48.384;8.984;2023-07-20T08:05:04;21.30;99.90
9371;DHT22;4725;48.384;8.984;2023-07-20T08:07:33;21.40;99.90
9371;DHT22;4725;48.384;8.984;2023-07-20T08:10:00;21.70;99.40
9371;DHT22;4725;48.384;8.984;2023-07-20T08:12:27;21.60;99.80
9371;DHT22;4725;48.384;8.984;2023-07-20T08:14:54;21.70;99.50
9371;DHT22;4725;48.384;8.984;2023-07-20T08:17:20;21.70;99.70
9371;DHT22;4725;48.384;8.984;2023-07-20T08:19:47;21.90;98.70
9371;DHT22;4725;48.384;8.984;2023-07-20T08:22:14;22.00;98.90
9371;DHT22;4725;48.384;8.984;2023-07-20T08:24:43;22.10;99.30
9371;DHT22;4725;48.384;8.984;2023-07-20T08:27:10;22.30;98.40
9371;DHT22;4725;48.384;8.984;2023-07-20T08:29:37;22.40;98.40
9371;DHT22;4725;48.384;8.984;2023-07-20T08:32:05;22.50;99.10
9371;DHT22;4725;48.384;8.984;2023-07-20T08:34:32;22.80;98.30
9371;DHT22;4725;48.384;8.984;2023-07-20T08:36:59;21.70;96.70
9371;DHT22;4725;48.384;8.984;2023-07-20T08:39:26;22.60;97.00
9371;DHT22;4725;48.384;8.984;2023-07-20T08:41:55;22.70;97.20
9371;DHT22;4725;48.384;8.984;2023-07-20T08:44:22;22.60;97.10
9371;DHT22;4725;48.384;8.984;2023-07-20T08:46:50;22.80;96.70
9371;DHT22;4725;48.384;8.984;2023-07-20T08:49:18;22.40;97.10
9371;DHT22;4725;48.384;8.984;2023-07-20T08:51:46;22.30;96.90
9371;DHT22;4725;48.384;8.984;2023-07-20T08:54:14;22.30;97.20
9371;DHT22;4725;48.384;8.984;2023-07-20T08:56:43;22.20;97.40
9371;DHT22;4725;48.384;8.984;2023-07-20T08:59:16;22.20;96.70
9371;DHT22;4725;48.384;8.984;2023-07-20T09:01:44;22.40;96.80
9371;DHT22;4725;48.384;8.984;2023-07-20T09:04:11;22.30;96.50
9371;DHT22;4725;48.384;8.984;2023-07-20T09:06:38;22.30;96.90
9371;DHT22;4725;48.384;8.984;2023-07-20T09:09:05;22.30;95.80
9371;DHT22;4725;48.384;8.984;2023-07-20T09:11:32;22.10;95.70
9371;DHT22;4725;48.384;8.984;2023-07-20T09:16:47;22.50;96.20
9371;DHT22;4725;48.384;8.984;2023-07-20T09:19:14;22.50;95.90
9371;DHT22;4725;48.384;8.984;2023-07-20T09:21:44;22.90;95.00
9371;DHT22;4725;48.384;8.984;2023-07-20T09:24:12;22.90;95.70
9371;DHT22;4725;48.384;8.984;2023-07-20T09:26:41;22.80;95.40
9371;DHT22;4725;48.384;8.984;2023-07-20T09:31:38;23.00;95.10
9371;DHT22;4725;48.384;8.984;2023-07-20T09:36:34;22.60;94.20
9371;DHT22;4725;48.384;8.984;2023-07-20T09:39:02;22.70;95.50
9371;DHT22;4725;48.384;8.984;2023-07-20T09:41:30;23.20;94.40
9371;DHT22;4725;48.384;8.984;2023-07-20T09:43:57;23.20;94.00
9371;DHT22;4725;48.384;8.984;2023-07-20T09:46:24;23.10;93.50
9371;DHT22;4725;48.384;8.984;2023-07-20T09:48:55;23.00;93.70
9371;DHT22;4725;48.384;8.984;2023-07-20T09:51:22;22.60;93.90
9371;DHT22;4725;48.384;8.984;2023-07-20T09:53:52;22.30;94.00
9371;DHT22;4725;48.384;8.984;2023-07-20T09:56:21;22.30;94.00
9371;DHT22;4725;48.384;8.984;2023-07-20T09:58:49;22.50;94.60
9371;DHT22;4725;48.384;8.984;2023-07-20T10:01:19;23.20;93.30
9371;DHT22;4725;48.384;8.984;2023-07-20T10:03:47;23.60;93.00
9371;DHT22;4725;48.384;8.984;2023-07-20T10:06:20;23.70;93.20
9371;DHT22;4725;48.384;8.984;2023-07-20T10:08:52;24.00;92.40
9371;DHT22;4725;48.384;8.984;2023-07-20T10:11:22;24.30;92.60
9371;DHT22;4725;48.384;8.984;2023-07-20T10:13:51;24.90;92.80
9371;DHT22;4725;48.384;8.984;2023-07-20T10:16:22;25.40;91.50
9371;DHT22;4725;48.384;8.984;2023-07-20T10:18:59;26.00;90.80
9371;DHT22;4725;48.384;8.984;2023-07-20T10:21:29;25.80;90.70
9371;DHT22;4725;48.384;8.984;2023-07-20T10:23:57;25.60;90.90
9371;DHT22;4725;48.384;8.984;2023-07-20T10:28:53;25.90;91.00
9371;DHT22;4725;48.384;8.984;2023-07-20T10:31:22;26.80;89.70
9371;DHT22;4725;48.384;8.984;2023-07-20T10:33:49;26.90;87.90
9371;DHT22;4725;48.384;8.984;2023-07-20T10:36:24;27.00;88.80
9371;DHT22;4725;48.384;8.984;2023-07-20T10:38:54;26.60;88.30
9371;DHT22;4725;48.384;8.984;2023-07-20T10:41:27;26.60;87.20
9371;DHT22;4725;48.384;8.984;2023-07-20T10:43:59;26.70;90.00
9371;DHT22;4725;48.384;8.984;2023-07-20T10:46:43;26.20;87.00
9371;DHT22;4725;48.384;8.984;2023-07-20T10:49:12;26.10;87.70
9371;DHT22;4725;48.384;8.984;2023-07-20T10:51:41;26.30;87.10
9371;DHT22;4725;48.384;8.984;2023-07-20T10:56:57;25.70;88.30
9371;DHT22;4725;48.384;8.984;2023-07-20T10:59:37;26.20;88.80
9371;DHT22;4725;48.384;8.984;2023-07-20T11:02:06;26.10;89.40
9371;DHT22;4725;48.384;8.984;2023-07-20T11:04:40;27.20;88.20
9371;DHT22;4725;48.384;8.984;2023-07-20T11:07:07;25.90;88.10
9371;DHT22;4725;48.384;8.984;2023-07-20T11:09:37;25.90;86.90
9371;DHT22;4725;48.384;8.984;2023-07-20T11:12:12;25.80;87.90
9371;DHT22;4725;48.384;8.984;2023-07-20T11:14:41;25.80;85.30
9371;DHT22;4725;48.384;8.984;2023-07-20T11:17:12;24.90;86.90
9371;DHT22;4725;48.384;8.984;2023-07-20T11:19:40;25.90;86.70
9371;DHT22;4725;48.384;8.984;2023-07-20T11:22:07;26.00;85.50
9371;DHT22;4725;48.384;8.984;2023-07-20T11:24:39;26.30;86.10
9371;DHT22;4725;48.384;8.984;2023-07-20T11:27:06;26.00;85.50
9371;DHT22;4725;48.384;8.984;2023-07-20T11:29:34;26.00;84.60
9371;DHT22;4725;48.384;8.984;2023-07-20T11:32:02;26.10;86.80
9371;DHT22;4725;48.384;8.984;2023-07-20T11:34:30;26.80;83.80
9371;DHT22;4725;48.384;8.984;2023-07-20T11:36:57;26.90;83.40
9371;DHT22;4725;48.384;8.984;2023-07-20T11:39:24;27.10;82.30
9371;DHT22;4725;48.384;8.984;2023-07-20T11:41:54;27.10;83.50
9371;DHT22;4725;48.384;8.984;2023-07-20T11:44:22;27.20;83.70
9371;DHT22;4725;48.384;8.984;2023-07-20T11:47:00;26.50;83.40
9371;DHT22;4725;48.384;8.984;2023-07-20T11:49:27;27.10;82.90
9371;DHT22;4725;48.384;8.984;2023-07-20T11:51:55;27.20;83.50
9371;DHT22;4725;48.384;8.984;2023-07-20T11:54:22;27.40;84.80
9371;DHT22;4725;48.384;8.984;2023-07-20T11:59:22;28.30;80.90
9371;DHT22;4725;48.384;8.984;2023-07-20T12:01:49;28.20;81.30
9371;DHT22;4725;48.384;8.984;2023-07-20T12:04:16;28.90;80.40
9371;DHT22;4725;48.384;8.984;2023-07-20T12:06:45;28.40;80.10
9371;DHT22;4725;48.384;8.984;2023-07-20T12:09:14;28.10;80.80
9371;DHT22;4725;48.384;8.984;2023-07-20T12:11:43;27.60;80.70
9371;DHT22;4725;48.384;8.984;2023-07-20T12:14:11;27.80;81.00
9371;DHT22;4725;48.384;8.984;2023-07-20T12:16:38;27.50;82.70
9371;DHT22;4725;48.384;8.984;2023-07-20T12:19:06;27.40;81.00
9371;DHT22;4725;48.384;8.984;2023-07-20T12:21:34;27.30;80.60
9371;DHT22;4725;48.384;8.984;2023-07-20T12:24:02;27.00;82.70
9371;DHT22;4725;48.384;8.984;2023-07-20T12:26:29;27.70;81.60
9371;DHT22;4725;48.384;8.984;2023-07-20T12:28:56;28.60;82.40
9371;DHT22;4725;48.384;8.984;2023-07-20T12:31:26;29.50;78.90
9371;DHT22;4725;48.384;8.984;2023-07-20T12:33:53;29.80;77.40
9371;DHT22;4725;48.384;8.984;2023-07-20T12:36:22;29.60;77.80
9371;DHT22;4725;48.384;8.984;2023-07-20T12:38:49;29.40;79.00
9371;DHT22;4725;48.384;8.984;2023-07-20T12:41:16;29.10;76.30
9371;DHT22;4725;48.384;8.984;2023-07-20T12:43:44;28.80;77.80
9371;DHT22;4725;48.384;8.984;2023-07-20T12:46:12;28.20;77.70
9371;DHT22;4725;48.384;8.984;2023-07-20T12:48:41;28.60;78.80
9371;DHT22;4725;48.384;8.984;2023-07-20T12:51:09;29.10;76.80
9371;DHT22;4725;48.384;8.984;2023-07-20T12:53:37;29.30;76.00
9371;DHT22;4725;48.384;8.984;2023-07-20T12:56:05;28.60;75.70
9371;DHT22;4725;48.384;8.984;2023-07-20T13:00:59;28.90;75.60
9371;DHT22;4725;48.384;8.984;2023-07-20T13:03:26;28.80;75.50
9371;DHT22;4725;48.384;8.984;2023-07-20T13:05:54;28.30;77.00
9371;DHT22;4725;48.384;8.984;2023-07-20T13:08:21;27.60;79.70
9371;DHT22;4725;48.384;8.984;2023-07-20T13:13:18;29.50;72.80
9371;DHT22;4725;48.384;8.984;2023-07-20T13:15:45;30.30;73.80
9371;DHT22;4725;48.384;8.984;2023-07-20T13:18:13;30.60;72.50
9371;DHT22;4725;48.384;8.984;2023-07-20T13:20:40;31.30;72.40
9371;DHT22;4725;48.384;8.984;2023-07-20T13:23:08;31.10;72.30
9371;DHT22;4725;48.384;8.984;2023-07-20T13:25:36;31.60;69.40
9371;DHT22;4725;48.384;8.984;2023-07-20T13:28:04;31.60;68.80
9371;DHT22;4725;48.384;8.984;2023-07-20T13:32:59;30.80;71.10
9371;DHT22;4725;48.384;8.984;2023-07-20T13:35:25;30.90;72.60
9371;DHT22;4725;48.384;8.984;2023-07-20T13:37:52;31.50;69.90
9371;DHT22;4725;48.384;8.984;2023-07-20T13:40:21;31.00;67.30
9371;DHT22;4725;48.384;8.984;2023-07-20T13:42:48;30.50;71.50
9371;DHT22;4725;48.384;8.984;2023-07-20T13:45:15;30.70;69.60
9371;DHT22;4725;48.384;8.984;2023-07-20T13:47:43;30.70;71.70
9371;DHT22;4725;48.384;8.984;2023-07-20T13:50:10;32.10;67.10
9371;DHT22;4725;48.384;8.984;2023-07-20T13:52:37;32.10;67.70
9371;DHT22;4725;48.384;8.984;2023-07-20T13:55:04;33.20;65.90
9371;DHT22;4725;48.384;8.984;2023-07-20T13:57:32;33.10;66.70
9371;DHT22;4725;48.384;8.984;2023-07-20T13:59:59;33.20;63.90
9371;DHT22;4725;48.384;8.984;2023-07-20T14:02:27;33.10;65.20
9371;DHT22;4725;48.384;8.984;2023-07-20T14:04:54;32.70;66.90
9371;DHT22;4725;48.384;8.984;2023-07-20T14:07:21;32.10;66.70
9371;DHT22;4725;48.384;8.984;2023-07-20T14:09:48;32.70;64.60
9371;DHT22;4725;48.384;8.984;2023-07-20T14:12:15;32.90;64.40
9371;DHT22;4725;48.384;8.984;2023-07-20T14:14:43;33.10;66.50
9371;DHT22;4725;48.384;8.984;2023-07-20T14:17:09;33.70;65.20
9371;DHT22;4725;48.384;8.984;2023-07-20T14:19:37;33.70;61.80
9371;DHT22;4725;48.384;8.984;2023-07-20T14:24:31;35.10;66.70
9371;DHT22;4725;48.384;8.984;2023-07-20T14:26:58;32.00;64.50
9371;DHT22;4725;48.384;8.984;2023-07-20T14:29:26;32.80;63.60
9371;DHT22;4725;48.384;8.984;2023-07-20T14:31:58;32.80;63.30
9371;DHT22;4725;48.384;8.984;2023-07-20T14:34:25;32.90;65.80
9371;DHT22;4725;48.384;8.984;2023-07-20T14:36:52;34.40;62.90
9371;DHT22;4725;48.384;8.984;2023-07-20T14:39:19;34.20;63.20
9371;DHT22;4725;48.384;8.984;2023-07-20T14:41:46;34.40;62.80
9371;DHT22;4725;48.384;8.984;2023-07-20T14:44:13;34.70;62.00
9371;DHT22;4725;48.384;8.984;2023-07-20T14:46:40;34.80;59.80
9371;DHT22;4725;48.384;8.984;2023-07-20T14:49:09;33.80;63.40
9371;DHT22;4725;48.384;8.984;2023-07-20T14:51:36;34.90;59.30
9371;DHT22;4725;48.384;8.984;2023-07-20T14:54:09;34.70;60.50
9371;DHT22;4725;48.384;8.984;2023-07-20T14:56:38;34.90;60.40
9371;DHT22;4725;48.384;8.984;2023-07-20T14:59:05;35.00;60.30
9371;DHT22;4725;48.384;8.984;2023-07-20T15:01:32;35.00;59.20
9371;DHT22;4725;48.384;8.984;2023-07-20T15:03:59;35.00;59.80
9371;DHT22;4725;48.384;8.984;2023-07-20T15:06:27;34.70;59.70
9371;DHT22;4725;48.384;8.984;2023-07-20T15:08:56;34.00;61.30
9371;DHT22;4725;48.384;8.984;2023-07-20T15:11:23;33.10;62.70
9371;DHT22;4725;48.384;8.984;2023-07-20T15:13:49;32.70;64.70
9371;DHT22;4725;48.384;8.984;2023-07-20T15:16:16;32.90;64.70
9371;DHT22;4725;48.384;8.984;2023-07-20T15:18:43;33.00;63.10
9371;DHT22;4725;48.384;8.984;2023-07-20T15:21:10;33.40;61.60
9371;DHT22;4725;48.384;8.984;2023-07-20T15:23:39;33.30;62.60
9371;DHT22;4725;48.384;8.984;2023-07-20T15:26:06;33.50;62.80
9371;DHT22;4725;48.384;8.984;2023-07-20T15:28:33;33.70;61.10
9371;DHT22;4725;48.384;8.984;2023-07-20T15:31:00;34.30;60.00
9371;DHT22;4725;48.384;8.984;2023-07-20T15:33:27;34.90;59.90
9371;DHT22;4725;48.384;8.984;2023-07-20T15:35:54;34.30;62.20
9371;DHT22;4725;48.384;8.984;2023-07-20T15:38:21;34.30;59.90
9371;DHT22;4725;48.384;8.984;2023-07-20T15:40:49;34.90;57.50
9371;DHT22;4725;48.384;8.984;2023-07-20T15:43:16;35.40;58.50
9371;DHT22;4725;48.384;8.984;2023-07-20T15:45:47;34.40;59.30
9371;DHT22;4725;48.384;8.984;2023-07-20T15:48:15;34.50;60.30
9371;DHT22;4725;48.384;8.984;2023-07-20T15:50:42;33.50;60.40
9371;DHT22;4725;48.384;8.984;2023-07-20T15:53:09;33.70;61.50
9371;DHT22;4725;48.384;8.984;2023-07-20T15:55:36;34.10;60.40
9371;DHT22;4725;48.384;8.984;2023-07-20T15:58:05;33.80;61.30
9371;DHT22;4725;48.384;8.984;2023-07-20T16:00:31;35.10;60.30
9371;DHT22;4725;48.384;8.984;2023-07-20T16:02:58;34.80;59.80
9371;DHT22;4725;48.384;8.984;2023-07-20T16:05:25;35.10;59.50
9371;DHT22;4725;48.384;8.984;2023-07-20T16:07:52;34.90;59.30
9371;DHT22;4725;48.384;8.984;2023-07-20T16:10:19;34.80;58.30
9371;DHT22;4725;48.384;8.984;2023-07-20T16:15:15;34.30;58.40
9371;DHT22;4725;48.384;8.984;2023-07-20T16:17:41;34.40;59.00
9371;DHT22;4725;48.384;8.984;2023-07-20T16:20:09;34.00;60.20
9371;DHT22;4725;48.384;8.984;2023-07-20T16:22:36;34.00;60.30
9371;DHT22;4725;48.384;8.984;2023-07-20T16:25:03;33.50;61.10
9371;DHT22;4725;48.384;8.984;2023-07-20T16:27:30;32.20;63.80
9371;DHT22;4725;48.384;8.984;2023-07-20T16:29:57;31.90;64.00
9371;DHT22;4725;48.384;8.984;2023-07-20T16:32:26;32.00;63.60
9371;DHT22;4725;48.384;8.984;2023-07-20T16:34:52;31.90;64.00
9371;DHT22;4725;48.384;8.984;2023-07-20T16:37:19;31.80;63.50
9371;DHT22;4725;48.384;8.984;2023-07-20T16:39:50;32.40;62.50
9371;DHT22;4725;48.384;8.984;2023-07-20T16:42:17;32.40;63.10
9371;DHT22;4725;48.384;8.984;2023-07-20T16:44:49;31.20;66.50
9371;DHT22;4725;48.384;8.984;2023-07-20T16:47:16;30.40;67.80
9371;DHT22;4725;48.384;8.984;2023-07-20T16:49:44;30.50;67.00
9371;DHT22;4725;48.384;8.984;2023-07-20T16:52:11;30.50;65.90
9371;DHT22;4725;48.384;8.984;2023-07-20T16:54:38;30.70;65.80
9371;DHT22;4725;48.384;8.984;2023-07-20T16:57:07;31.40;64.40
9371;DHT22;4725;48.384;8.984;2023-07-20T16:59:34;31.50;64.30
9371;DHT22;4725;48.384;8.984;2023-07-20T17:02:01;31.40;65.40
9371;DHT22;4725;48.384;8.984;2023-07-20T17:04:28;30.80;66.90
9371;DHT22;4725;48.384;8.984;2023-07-20T17:06:56;30.50;68.40
9371;DHT22;4725;48.384;8.984;2023-07-20T17:11:52;30.10;67.10
9371;DHT22;4725;48.384;8.984;2023-07-20T17:14:19;30.50;66.70
9371;DHT22;4725;48.384;8.984;2023-07-20T17:16:46;30.50;66.00
9371;DHT22;4725;48.384;8.984;2023-07-20T17:19:13;30.50;66.40
9371;DHT22;4725;48.384;8.984;2023-07-20T17:21:40;30.30;66.30